First I — 3ESJ5 — position and weather

sailwx.info

Track history (hours):
 
Tides and Currents Weather Stations Pressure Air Temp Water Temp Dewpoint Dewpoint Depression Visibility Wind Speed Wind Dir Waves Ship Positions

First I

Last reported at 2017-Jan-15 21:32 UTC. Time now 2017-Jan-22 01:47 UTC.
Position N 31°05' E 122°27'.

Length 190 m; draft 6.6 m.

Type: Cargo ship. MMSI: 370317000.

Date/timePositionNaut miles runAvg speedWind from/ knotsBaromVisibWave heightAir tempDewpointWater temp
2017-Jan-15 21:32N 31°05' E 122°27'1212.7
2017-Jan-15 20:33N 31°09' E 122°13'1414.2
2017-Jan-15 19:33N 31°15' E 121°58'1212.4
2017-Jan-15 18:34N 31°19' E 121°44'10 9.6
2017-Jan-15 17:33N 31°24' E 121°34'9 9.1
2017-Jan-15 16:34N 31°29' E 121°26'1212.4
2017-Jan-15 15:33N 31°38' E 121°15'1413.9
2017-Jan-15 14:33N 31°46' E 121°02'4 0.1
2017-Jan-13 18:11N 31°46' E 120°58'0 0.0
2017-Jan-13 11:29N 31°46' E 120°58'0 0.0
2017-Jan-12 20:23N 31°46' E 120°58'0 0.0
2017-Jan-12 13:33N 31°46' E 120°58'3 3.3
2017-Jan-12 12:31N 31°47' E 121°02'0 0.1
2017-Jan-12 11:31N 31°47' E 121°02'0 0.1
2017-Jan-12 10:31N 31°47' E 121°02'0 0.1
2017-Jan-12 09:31N 31°47' E 121°02'0 0.0
2017-Jan-12 03:31N 31°47' E 121°01'0 0.2
2017-Jan-12 02:04N 31°47' E 121°02'0 0.0
2017-Jan-12 01:07N 31°47' E 121°02'0 0.1
2017-Jan-12 00:25N 31°47' E 121°02'0 0.0
2017-Jan-11 23:25N 31°47' E 121°02'0 0.0
2017-Jan-11 22:28N 31°47' E 121°02'0 0.0
2017-Jan-11 21:28N 31°47' E 121°02'0 0.1
2017-Jan-11 20:31N 31°47' E 121°02'0 0.1
2017-Jan-11 18:31N 31°47' E 121°01'0 0.0
2017-Jan-11 17:25N 31°47' E 121°01'0 0.1
2017-Jan-11 15:19N 31°47' E 121°02'0 0.0
2017-Jan-11 10:22N 31°47' E 121°02'4 3.5
2017-Jan-11 09:13N 31°45' E 121°06'6 9.5
2017-Jan-11 08:33N 31°41' E 121°11'1010.2
2017-Jan-11 07:33N 31°33' E 121°20'1110.7
2017-Jan-11 06:33N 31°27' E 121°29'7 6.5
2017-Jan-11 05:30N 31°23' E 121°36'8 9.0
2017-Jan-11 04:34N 31°19' E 121°45'9 9.0
2017-Jan-11 03:34N 31°16' E 121°54'1111.3
2017-Jan-11 02:33N 31°13' E 122°07'1412.6
2017-Jan-11 01:29N 31°06' E 122°21'  
Track history (hours):
 
Tides and Currents Weather Stations Pressure Air Temp Water Temp Dewpoint Dewpoint Depression Visibility Wind Speed Wind Dir Waves Ship Positions

First I

Last reported at 2017-Jan-15 21:32 UTC. Time now 2017-Jan-22 01:47 UTC.
Position N 31°05' E 122°27'.

Length 190 m; draft 6.6 m.

Type: Cargo ship. MMSI: 370317000.

Date/timePositionNaut miles runAvg speedWind from/ knotsBaromVisibWave heightAir tempDewpointWater temp
2017-Jan-15 21:32N 31°05' E 122°27'1212.7
2017-Jan-15 20:33N 31°09' E 122°13'1414.2
2017-Jan-15 19:33N 31°15' E 121°58'1212.4
2017-Jan-15 18:34N 31°19' E 121°44'10 9.6
2017-Jan-15 17:33N 31°24' E 121°34'9 9.1
2017-Jan-15 16:34N 31°29' E 121°26'1212.4
2017-Jan-15 15:33N 31°38' E 121°15'1413.9
2017-Jan-15 14:33N 31°46' E 121°02'4 0.1
2017-Jan-13 18:11N 31°46' E 120°58'0 0.0
2017-Jan-13 11:29N 31°46' E 120°58'0 0.0
2017-Jan-12 20:23N 31°46' E 120°58'0 0.0
2017-Jan-12 13:33N 31°46' E 120°58'3 3.3
2017-Jan-12 12:31N 31°47' E 121°02'0 0.1
2017-Jan-12 11:31N 31°47' E 121°02'0 0.1
2017-Jan-12 10:31N 31°47' E 121°02'0 0.1
2017-Jan-12 09:31N 31°47' E 121°02'0 0.0
2017-Jan-12 03:31N 31°47' E 121°01'0 0.2
2017-Jan-12 02:04N 31°47' E 121°02'0 0.0
2017-Jan-12 01:07N 31°47' E 121°02'0 0.1
2017-Jan-12 00:25N 31°47' E 121°02'0 0.0
2017-Jan-11 23:25N 31°47' E 121°02'0 0.0
2017-Jan-11 22:28N 31°47' E 121°02'0 0.0
2017-Jan-11 21:28N 31°47' E 121°02'0 0.1
2017-Jan-11 20:31N 31°47' E 121°02'0 0.1
2017-Jan-11 18:31N 31°47' E 121°01'0 0.0
2017-Jan-11 17:25N 31°47' E 121°01'0 0.1
2017-Jan-11 15:19N 31°47' E 121°02'0 0.0
2017-Jan-11 10:22N 31°47' E 121°02'4 3.5
2017-Jan-11 09:13N 31°45' E 121°06'6 9.5
2017-Jan-11 08:33N 31°41' E 121°11'1010.2
2017-Jan-11 07:33N 31°33' E 121°20'1110.7
2017-Jan-11 06:33N 31°27' E 121°29'7 6.5
2017-Jan-11 05:30N 31°23' E 121°36'8 9.0
2017-Jan-11 04:34N 31°19' E 121°45'9 9.0
2017-Jan-11 03:34N 31°16' E 121°54'1111.3
2017-Jan-11 02:33N 31°13' E 122°07'1412.6
2017-Jan-11 01:29N 31°06' E 122°21'  

Dump ship's entire track history